< < Back
Terminal Aerodrome Forecast


Current Version              Previous Versions:   1  2  3  4  5  6  7  8  9  

Terminal Aerodrome Forecast

379
FTUS42 KCAE 232300
TAFCAE
TAF
KCAE 232327Z 2400/2424 14009G20KT 3SM -TSRA BR OVC004CB
     FM240300 21010G18KT 4SM -SHRA BR OVC003
     FM240600 21009G15KT P6SM OVC005
     FM241800 22014G25KT P6SM BKN015
     FM242100 23012G20KT P6SM SCT015 BKN035=



Latest METAR

511
SAUS80 KWBC 240800 RRA
MTRCAE
METAR KCAE 240756Z 23009KT 10SM SCT021 19/16 A2979 RMK AO2 SLP085
T01890161


USA.gov is the U.S. government's official web portal to all federal, state and local government web resources and services.